createdAt,value
2017-10-18T15:06:37.014Z,22.27
2017-10-18T16:01:45.107Z,17.27
2017-10-18T16:02:51.434Z,17.22
2017-10-18T16:04:03.472Z,17.20
2017-10-18T16:05:11.569Z,17.21
2017-10-18T16:06:19.767Z,17.13
2017-10-18T16:07:29.238Z,17.06
2017-10-18T16:08:39.063Z,16.93
2017-10-18T16:21:57.857Z,16.01
2017-10-18T16:23:19.199Z,15.98
2017-10-18T16:24:30.139Z,15.96
2017-10-18T16:25:45.992Z,15.89
2017-10-18T16:26:56.631Z,15.89
2017-10-18T16:28:04.878Z,15.81
2017-10-18T16:29:11.335Z,15.70
2017-10-18T16:30:20.564Z,15.58
2017-10-18T16:31:28.752Z,15.49
2017-10-18T16:32:35.007Z,15.39
2017-10-18T16:33:41.424Z,15.35
2017-10-18T16:34:50.091Z,15.34
2017-10-18T16:35:59.620Z,15.36
2017-10-18T16:37:07.646Z,15.34
2017-10-18T16:38:15.534Z,15.35
2017-10-18T16:39:22.446Z,15.33
2017-10-18T16:41:49.751Z,15.19
2017-10-18T16:42:56.956Z,15.17
2017-10-18T16:44:04.737Z,15.14
2017-10-18T16:45:22.144Z,15.05
2017-10-18T16:46:44.211Z,14.96
2017-10-18T16:47:56.915Z,14.90
2017-10-18T16:49:13.587Z,14.86
2017-10-18T16:50:28.699Z,14.85
2017-10-18T16:51:40.314Z,14.89
2017-10-18T16:53:02.152Z,14.93
2017-10-18T16:54:54.850Z,14.92
2017-10-18T16:56:03.394Z,14.81
2017-10-18T16:57:18.440Z,14.78
2017-10-18T16:58:26.655Z,14.61
2017-10-18T16:59:53.487Z,14.55
2017-10-18T17:00:59.702Z,14.52
2017-10-18T17:02:07.221Z,14.54
2017-10-18T17:03:13.648Z,14.48
2017-10-18T17:04:19.949Z,14.31
2017-10-18T17:05:27.155Z,14.10
2017-10-18T17:06:33.385Z,14.02
2017-10-18T17:07:42.241Z,13.96
2017-10-18T17:08:52.408Z,13.93
2017-10-18T17:10:03.424Z,13.92
2017-10-18T17:11:10.589Z,13.89
2017-10-18T17:12:16.574Z,13.89
2017-10-18T17:13:22.765Z,13.87
2017-10-18T17:14:28.950Z,13.78
2017-10-18T17:15:35.175Z,13.69
2017-10-18T17:16:41.453Z,13.69
2017-10-18T17:17:47.632Z,13.62
2017-10-18T17:18:53.763Z,13.68
2017-10-18T17:19:59.883Z,13.70
2017-10-18T17:21:06.045Z,13.70
2017-10-18T17:22:12.522Z,13.71
2017-10-18T17:23:19.210Z,13.72
2017-10-18T17:24:25.962Z,13.71
2017-10-18T17:25:32.762Z,13.61
2017-10-18T17:26:39.498Z,13.62
2017-10-18T17:27:46.279Z,13.65
2017-10-18T17:28:53.045Z,13.62
2017-10-18T17:29:59.161Z,13.63
2017-10-18T17:31:04.928Z,13.63
2017-10-18T17:32:11.054Z,13.69
2017-10-18T17:33:19.284Z,13.69
2017-10-18T17:34:26.519Z,13.71
2017-10-18T17:35:32.649Z,13.75
2017-10-18T17:36:38.814Z,13.72
2017-10-18T17:37:45.241Z,13.70
2017-10-18T17:38:51.568Z,13.66
2017-10-18T17:39:57.724Z,13.62
2017-10-18T17:41:03.853Z,13.52
2017-10-18T17:42:10.854Z,13.47
2017-10-18T17:43:16.951Z,13.43
2017-10-18T17:44:23.107Z,13.39
2017-10-18T17:45:29.232Z,13.31
2017-10-18T17:46:37.672Z,13.34
2017-10-18T17:47:44.670Z,13.31
2017-10-18T17:48:50.628Z,13.26
2017-10-18T17:49:56.978Z,13.23
2017-10-18T17:51:03.753Z,13.15
2017-10-18T17:52:10.226Z,13.15
2017-10-18T17:53:16.565Z,13.10
2017-10-18T17:54:22.523Z,13.15
2017-10-18T17:55:28.674Z,13.15
2017-10-18T17:56:34.826Z,13.13
2017-10-18T17:57:41.206Z,13.13
2017-10-18T17:58:47.335Z,13.03
2017-10-18T17:59:54.607Z,12.98
2017-10-18T18:01:00.739Z,12.99
2017-10-18T18:02:06.791Z,12.95
2017-10-18T18:03:13.012Z,12.97
2017-10-18T18:04:19.149Z,12.98
2017-10-18T18:05:25.087Z,12.93
2017-10-18T18:06:31.248Z,12.89
2017-10-18T18:07:37.412Z,12.90
2017-10-18T18:08:43.347Z,12.83
2017-10-18T18:09:49.647Z,12.78
2017-10-18T18:10:56.020Z,12.78
2017-10-18T18:12:03.263Z,12.75
2017-10-18T18:13:09.356Z,12.73
2017-10-18T18:14:15.336Z,12.69
2017-10-18T18:15:22.147Z,12.67
2017-10-18T18:16:29.534Z,12.60
2017-10-18T18:17:35.923Z,12.52
2017-10-18T18:18:42.818Z,12.53
2017-10-18T18:19:51.114Z,12.56
2017-10-18T18:20:58.229Z,12.62
2017-10-18T18:22:05.202Z,12.66
2017-10-18T18:23:13.528Z,12.60
2017-10-18T18:24:20.986Z,12.54
2017-10-18T18:25:29.023Z,12.51
2017-10-18T18:26:36.963Z,12.47
2017-10-18T18:27:43.738Z,12.57
2017-10-18T18:28:49.959Z,12.61
2017-10-18T18:29:56.699Z,12.56
2017-10-18T18:31:03.881Z,12.52
2017-10-18T18:32:12.669Z,12.42
2017-10-18T18:33:20.108Z,12.32
2017-10-18T18:34:26.979Z,12.33
2017-10-18T18:35:33.553Z,12.31
2017-10-18T18:36:40.219Z,12.27
2017-10-18T18:37:49.615Z,12.24
2017-10-18T18:38:56.774Z,12.21
2017-10-18T18:40:03.436Z,12.19
2017-10-18T18:41:09.850Z,12.17
2017-10-18T18:42:16.179Z,12.17
2017-10-18T18:43:22.863Z,12.17
2017-10-18T18:44:29.803Z,12.19
2017-10-18T18:45:37.065Z,12.17
2017-10-18T18:46:44.367Z,12.14
2017-10-18T18:47:51.289Z,12.14
2017-10-18T18:48:58.760Z,12.11
2017-10-18T18:50:05.638Z,12.10
2017-10-18T18:51:12.864Z,12.09
2017-10-18T18:52:20.264Z,12.06
2017-10-18T18:53:27.108Z,12.02
2017-10-18T18:54:34.060Z,12.02
2017-10-18T18:55:40.592Z,12.03
2017-10-18T18:56:47.276Z,12.01
2017-10-18T18:57:54.425Z,12.01
2017-10-18T18:59:01.663Z,12.05
2017-10-18T19:00:08.305Z,12.07
2017-10-18T19:01:15.411Z,12.08
2017-10-18T19:02:21.882Z,12.00
2017-10-18T19:03:29.718Z,11.99
2017-10-18T19:04:36.807Z,11.94
2017-10-18T19:05:43.297Z,11.97
2017-10-18T19:06:49.405Z,11.97
2017-10-18T19:07:58.028Z,11.97
2017-10-18T19:09:05.541Z,11.97
2017-10-18T19:10:14.500Z,11.97
2017-10-18T19:11:22.684Z,11.91
2017-10-18T19:12:30.803Z,11.86
2017-10-18T19:13:39.529Z,11.77
2017-10-18T19:14:48.925Z,11.77
2017-10-18T19:15:56.855Z,11.78
2017-10-18T19:17:04.335Z,11.78
2017-10-18T19:18:11.793Z,11.78
2017-10-18T19:19:19.513Z,11.74
2017-10-18T19:20:26.914Z,11.77
2017-10-18T19:21:37.236Z,11.87
2017-10-18T19:24:15.213Z,11.85
2017-10-18T19:25:22.444Z,11.73
2017-10-18T19:26:31.400Z,11.63
2017-10-18T19:27:38.820Z,11.56
2017-10-18T19:28:46.043Z,11.50
2017-10-18T19:29:53.104Z,11.50
2017-10-18T19:31:01.618Z,11.51
2017-10-18T19:32:08.832Z,11.54
2017-10-18T19:33:16.586Z,11.56
2017-10-18T19:34:25.983Z,11.47
2017-10-18T19:35:34.719Z,11.47
2017-10-18T19:36:42.279Z,11.49
2017-10-18T19:37:50.556Z,11.43
2017-10-18T19:38:57.197Z,11.36
2017-10-18T19:40:04.507Z,11.32
2017-10-18T19:41:10.833Z,11.37
2017-10-18T19:42:16.942Z,11.41
2017-10-18T19:43:23.064Z,11.42
2017-10-18T19:44:29.192Z,11.37
2017-10-18T19:45:35.290Z,11.33
2017-10-18T19:46:41.430Z,11.29
2017-10-18T19:47:47.551Z,11.33
2017-10-18T19:48:53.676Z,11.34
2017-10-18T19:49:59.811Z,11.39
2017-10-18T19:51:05.915Z,11.33
2017-10-18T19:52:12.026Z,11.31
2017-10-18T19:53:18.130Z,11.30
2017-10-18T19:54:24.232Z,11.28
2017-10-18T19:55:30.346Z,11.26
2017-10-18T19:56:36.696Z,11.32
2017-10-18T19:57:42.789Z,11.35
2017-10-18T19:58:48.843Z,11.26
2017-10-18T19:59:54.940Z,11.22
2017-10-18T20:01:01.072Z,11.15
2017-10-18T20:02:06.951Z,11.13
2017-10-18T20:03:13.044Z,11.10
2017-10-18T20:04:19.243Z,11.07
2017-10-18T20:05:25.368Z,11.05
2017-10-18T20:06:31.448Z,11.02
2017-10-18T20:07:36.998Z,11.06
2017-10-18T20:08:43.111Z,11.10
2017-10-18T20:09:49.315Z,11.08
2017-10-18T20:10:55.426Z,11.07
2017-10-18T20:12:01.867Z,11.03
2017-10-18T20:13:07.982Z,11.03
2017-10-18T20:14:14.086Z,11.05
2017-10-18T20:15:20.196Z,11.10
2017-10-18T20:16:25.993Z,11.02
2017-10-18T20:17:32.100Z,11.02
2017-10-18T20:18:38.101Z,10.98
2017-10-18T20:19:44.207Z,11.00
2017-10-18T20:20:50.135Z,10.98
2017-10-18T20:21:56.426Z,10.91
2017-10-18T20:23:02.450Z,10.79
2017-10-18T20:24:08.812Z,10.85
2017-10-18T20:25:14.925Z,11.02
2017-10-18T20:26:20.840Z,11.05
2017-10-18T20:27:26.932Z,10.98
2017-10-18T20:28:33.010Z,10.96
2017-10-18T20:29:39.121Z,10.90
2017-10-18T20:30:45.119Z,10.83
2017-10-18T20:31:51.243Z,10.78
2017-10-18T20:32:57.341Z,10.79
2017-10-18T20:34:03.451Z,10.87
2017-10-18T20:35:09.547Z,10.83
2017-10-18T20:36:15.662Z,10.75
2017-10-18T20:37:21.782Z,10.65
2017-10-18T20:38:28.001Z,10.67
2017-10-18T20:39:34.404Z,10.66
2017-10-18T20:40:40.752Z,10.69
2017-10-18T20:41:46.864Z,10.70
2017-10-18T20:42:53.011Z,10.64
2017-10-18T20:43:59.110Z,10.64
2017-10-18T20:45:05.212Z,10.65
2017-10-18T20:46:11.383Z,10.61
2017-10-18T20:47:17.500Z,10.56
2017-10-18T20:48:23.410Z,10.56
2017-10-18T20:49:29.497Z,10.58
2017-10-18T20:50:35.253Z,10.59
2017-10-18T20:51:41.423Z,10.62
2017-10-18T20:52:47.509Z,10.59
2017-10-18T20:53:53.632Z,10.58
2017-10-18T20:54:59.744Z,10.58
2017-10-18T20:56:05.862Z,10.57
2017-10-18T20:57:12.028Z,10.66
2017-10-18T20:58:17.841Z,10.70
2017-10-18T20:59:23.936Z,10.67
2017-10-18T21:00:29.911Z,10.64
2017-10-18T21:01:35.908Z,10.63
2017-10-18T21:02:42.306Z,10.54
2017-10-18T21:03:48.412Z,10.64
2017-10-18T21:04:54.533Z,10.64
2017-10-18T21:06:00.626Z,10.60
2017-10-18T21:07:06.558Z,10.62
2017-10-18T21:08:12.462Z,10.56
2017-10-18T21:09:18.571Z,10.48
2017-10-18T21:10:24.696Z,10.50
2017-10-18T21:11:30.989Z,10.59
2017-10-18T21:12:36.897Z,10.56
2017-10-18T21:13:43.017Z,10.50
2017-10-18T21:14:49.132Z,10.49
2017-10-18T21:15:55.025Z,10.52
2017-10-18T21:17:01.196Z,10.58
2017-10-18T21:18:07.287Z,10.55
2017-10-18T21:19:13.395Z,10.50
2017-10-18T21:20:19.509Z,10.43
2017-10-18T21:21:25.617Z,10.44
2017-10-18T21:22:35.144Z,10.46
2017-10-18T21:23:41.292Z,10.51
2017-10-18T21:24:47.375Z,10.50
2017-10-18T21:25:53.469Z,10.43
2017-10-18T21:26:59.567Z,10.39
2017-10-18T21:28:05.829Z,10.39
2017-10-18T21:29:11.949Z,10.42
2017-10-18T21:30:18.044Z,10.48
2017-10-18T21:31:24.174Z,10.43
2017-10-18T21:32:30.280Z,10.40
2017-10-18T21:33:36.365Z,10.43
2017-10-18T21:34:42.287Z,10.35
2017-10-18T21:35:48.416Z,10.26
2017-10-18T21:36:54.494Z,10.25
2017-10-18T21:38:00.048Z,10.25
2017-10-18T21:39:05.592Z,10.36
2017-10-18T21:40:11.480Z,10.33
2017-10-18T21:41:17.374Z,10.21
2017-10-18T21:42:23.503Z,10.22
2017-10-18T21:43:29.768Z,10.21
2017-10-18T21:44:36.139Z,10.29
2017-10-18T21:45:42.232Z,10.26
2017-10-18T21:46:48.699Z,10.30
2017-10-18T21:47:58.435Z,10.25
2017-10-18T21:49:04.875Z,10.15
2017-10-18T21:50:11.296Z,10.15
2017-10-18T21:51:17.394Z,10.24
2017-10-18T21:52:23.498Z,10.16
2017-10-18T21:53:29.403Z,10.10
2017-10-18T21:54:35.337Z,10.14
2017-10-18T21:55:41.443Z,10.12
2017-10-18T21:56:47.560Z,10.08
2017-10-18T21:57:53.853Z,10.06
2017-10-18T21:59:00.025Z,10.02
2017-10-18T22:00:06.782Z,9.99
2017-10-18T22:01:12.342Z,9.99
2017-10-18T22:02:18.442Z,9.97
2017-10-18T22:03:24.531Z,9.96
2017-10-18T22:04:30.613Z,9.92
2017-10-18T22:05:36.748Z,9.91
2017-10-18T22:06:42.845Z,9.93
2017-10-18T22:07:49.519Z,9.98
2017-10-18T22:08:55.639Z,10.10
2017-10-18T22:10:02.099Z,10.28
2017-10-18T22:11:08.224Z,10.28
2017-10-18T22:12:14.490Z,10.24
2017-10-18T22:13:20.661Z,10.22
2017-10-18T22:14:26.802Z,10.19
2017-10-18T22:15:32.922Z,10.25
2017-10-18T22:16:39.085Z,10.21
2017-10-18T22:17:45.327Z,10.40
2017-10-18T22:18:51.278Z,10.51
2017-10-18T22:19:57.918Z,10.49
2017-10-18T22:21:04.021Z,10.37
2017-10-18T22:22:10.132Z,10.50
2017-10-18T22:23:16.253Z,10.32
2017-10-18T22:24:22.416Z,10.05
2017-10-18T22:25:28.543Z,10.06
2017-10-18T22:26:34.693Z,10.24
2017-10-18T22:27:40.824Z,10.35
2017-10-18T22:28:46.854Z,10.05
2017-10-18T22:29:52.992Z,9.99
2017-10-18T22:30:59.296Z,9.99
2017-10-18T22:32:05.426Z,9.90
2017-10-18T22:33:11.526Z,10.04
2017-10-18T22:34:17.646Z,9.94
2017-10-18T22:35:23.447Z,9.77
2017-10-18T22:36:29.476Z,9.75
2017-10-18T22:37:35.332Z,9.83
2017-10-18T22:38:41.129Z,9.86
2017-10-18T22:39:47.265Z,9.91
2017-10-18T22:40:53.388Z,10.03
2017-10-18T22:41:59.498Z,10.03
2017-10-18T22:43:05.653Z,10.05
2017-10-18T22:44:11.771Z,10.18
2017-10-18T22:45:17.873Z,10.28
2017-10-18T22:46:23.970Z,10.37
2017-10-18T22:47:30.100Z,10.34
2017-10-18T22:48:36.096Z,10.10
2017-10-18T22:49:44.319Z,9.95
2017-10-18T22:50:50.444Z,9.91
2017-10-18T22:51:56.587Z,9.78
2017-10-18T22:53:02.627Z,9.72
2017-10-18T22:54:12.206Z,9.68
2017-10-18T22:55:18.321Z,9.65
2017-10-18T22:56:27.420Z,9.68
2017-10-18T22:57:33.520Z,9.77
2017-10-18T22:58:39.642Z,9.84
2017-10-18T22:59:45.923Z,9.93
2017-10-18T23:00:52.104Z,10.03
2017-10-18T23:01:58.209Z,10.04
2017-10-18T23:03:04.368Z,10.03
2017-10-18T23:04:10.275Z,9.77
2017-10-18T23:05:16.549Z,9.63
2017-10-18T23:06:22.682Z,9.63
2017-10-18T23:07:29.495Z,9.70
2017-10-18T23:08:35.669Z,9.63
2017-10-18T23:09:41.845Z,9.57
2017-10-18T23:10:48.000Z,9.52
2017-10-18T23:11:54.190Z,9.57
2017-10-18T23:13:00.082Z,9.64
2017-10-18T23:14:07.324Z,9.71
2017-10-18T23:15:13.431Z,9.79
2017-10-18T23:16:19.534Z,9.84
2017-10-18T23:17:25.647Z,9.84
2017-10-18T23:18:31.814Z,9.84
2017-10-18T23:19:37.951Z,9.86
2017-10-18T23:20:44.097Z,9.89
2017-10-18T23:21:50.181Z,9.75
2017-10-18T23:22:59.924Z,9.84
2017-10-18T23:24:06.081Z,9.92
2017-10-18T23:25:13.356Z,9.98
2017-10-18T23:26:19.287Z,9.83
2017-10-18T23:27:26.601Z,9.88
2017-10-18T23:28:32.863Z,9.86
2017-10-18T23:29:39.966Z,9.76
2017-10-18T23:30:46.056Z,9.70
2017-10-18T23:31:52.181Z,9.78
2017-10-18T23:32:58.169Z,9.78
2017-10-18T23:34:04.441Z,9.45
2017-10-18T23:35:10.565Z,9.48
2017-10-18T23:36:16.688Z,9.46
2017-10-18T23:37:22.801Z,9.55
2017-10-18T23:38:28.994Z,9.49
2017-10-18T23:39:34.902Z,9.63
2017-10-18T23:40:41.000Z,9.46
2017-10-18T23:41:47.126Z,9.36
2017-10-18T23:42:53.250Z,9.40
2017-10-18T23:43:59.516Z,9.38
2017-10-18T23:45:05.421Z,9.44
2017-10-18T23:46:11.509Z,9.59
2017-10-18T23:47:17.613Z,9.63
2017-10-18T23:48:23.741Z,9.69
2017-10-18T23:49:29.870Z,9.72
2017-10-18T23:50:35.993Z,9.63
2017-10-18T23:51:42.104Z,9.58
2017-10-18T23:52:53.717Z,9.52
2017-10-18T23:53:59.979Z,9.41
2017-10-18T23:55:06.096Z,9.29
2017-10-18T23:56:14.783Z,9.16
2017-10-18T23:57:21.444Z,9.05
2017-10-18T23:58:28.337Z,8.95
2017-10-18T23:59:35.443Z,8.99
